sensor_id;sensor_type;location;lat;lon;timestamp;P1;durP1;ratioP1;P2;durP2;ratioP2
75793;SDS011;64418;47.536;19.074;2023-12-20T00:00:13;32.70;;;11.30;;
75793;SDS011;64418;47.536;19.074;2023-12-20T00:02:39;31.70;;;11.20;;
75793;SDS011;64418;47.536;19.074;2023-12-20T00:05:07;26.33;;;11.65;;
75793;SDS011;64418;47.536;19.074;2023-12-20T00:07:33;31.55;;;12.18;;
75793;SDS011;64418;47.536;19.074;2023-12-20T00:09:59;29.67;;;11.00;;
75793;SDS011;64418;47.536;19.074;2023-12-20T00:12:25;31.53;;;10.73;;
75793;SDS011;64418;47.536;19.074;2023-12-20T00:14:51;33.30;;;11.40;;
75793;SDS011;64418;47.536;19.074;2023-12-20T00:17:16;31.20;;;11.37;;
75793;SDS011;64418;47.536;19.074;2023-12-20T00:19:43;27.10;;;11.55;;
75793;SDS011;64418;47.536;19.074;2023-12-20T00:22:10;37.53;;;12.13;;
75793;SDS011;64418;47.536;19.074;2023-12-20T00:24:36;36.75;;;11.77;;
75793;SDS011;64418;47.536;19.074;2023-12-20T00:27:02;49.80;;;12.65;;
75793;SDS011;64418;47.536;19.074;2023-12-20T00:29:29;30.47;;;11.07;;
75793;SDS011;64418;47.536;19.074;2023-12-20T00:31:54;41.28;;;10.32;;
75793;SDS011;64418;47.536;19.074;2023-12-20T00:34:20;40.47;;;11.23;;
75793;SDS011;64418;47.536;19.074;2023-12-20T00:36:46;47.50;;;12.77;;
75793;SDS011;64418;47.536;19.074;2023-12-20T00:39:13;33.67;;;11.75;;
75793;SDS011;64418;47.536;19.074;2023-12-20T00:41:39;37.47;;;10.95;;
75793;SDS011;64418;47.536;19.074;2023-12-20T00:44:05;36.03;;;11.30;;
75793;SDS011;64418;47.536;19.074;2023-12-20T00:46:31;40.95;;;12.45;;
75793;SDS011;64418;47.536;19.074;2023-12-20T00:48:57;42.45;;;10.30;;
75793;SDS011;64418;47.536;19.074;2023-12-20T00:51:23;44.92;;;12.35;;
75793;SDS011;64418;47.536;19.074;2023-12-20T00:53:49;32.23;;;11.30;;
75793;SDS011;64418;47.536;19.074;2023-12-20T00:56:19;30.27;;;10.65;;
75793;SDS011;64418;47.536;19.074;2023-12-20T00:58:44;30.58;;;10.88;;
75793;SDS011;64418;47.536;19.074;2023-12-20T01:01:10;30.57;;;10.93;;
75793;SDS011;64418;47.536;19.074;2023-12-20T01:03:36;37.97;;;11.13;;
75793;SDS011;64418;47.536;19.074;2023-12-20T01:06:02;37.45;;;11.23;;
75793;SDS011;64418;47.536;19.074;2023-12-20T01:08:28;35.20;;;10.85;;
75793;SDS011;64418;47.536;19.074;2023-12-20T01:10:54;30.20;;;11.33;;
75793;SDS011;64418;47.536;19.074;2023-12-20T01:13:21;32.78;;;12.20;;
75793;SDS011;64418;47.536;19.074;2023-12-20T01:15:47;37.75;;;11.07;;
75793;SDS011;64418;47.536;19.074;2023-12-20T01:18:13;33.55;;;11.05;;
75793;SDS011;64418;47.536;19.074;2023-12-20T01:20:39;41.93;;;12.87;;
75793;SDS011;64418;47.536;19.074;2023-12-20T01:23:06;37.35;;;10.77;;
75793;SDS011;64418;47.536;19.074;2023-12-20T01:25:31;29.40;;;10.65;;
75793;SDS011;64418;47.536;19.074;2023-12-20T01:27:57;40.73;;;10.83;;
75793;SDS011;64418;47.536;19.074;2023-12-20T01:30:24;35.65;;;11.18;;
75793;SDS011;64418;47.536;19.074;2023-12-20T01:32:51;31.75;;;11.15;;
75793;SDS011;64418;47.536;19.074;2023-12-20T01:35:17;38.10;;;11.20;;
75793;SDS011;64418;47.536;19.074;2023-12-20T01:37:43;31.77;;;10.85;;
75793;SDS011;64418;47.536;19.074;2023-12-20T01:40:09;28.48;;;10.40;;
75793;SDS011;64418;47.536;19.074;2023-12-20T01:42:36;25.27;;;9.40;;
75793;SDS011;64418;47.536;19.074;2023-12-20T01:45:02;27.80;;;9.67;;
75793;SDS011;64418;47.536;19.074;2023-12-20T01:47:30;36.63;;;12.10;;
75793;SDS011;64418;47.536;19.074;2023-12-20T01:49:56;27.92;;;9.85;;
75793;SDS011;64418;47.536;19.074;2023-12-20T01:52:23;31.27;;;10.27;;
75793;SDS011;64418;47.536;19.074;2023-12-20T01:54:51;33.90;;;10.30;;
75793;SDS011;64418;47.536;19.074;2023-12-20T01:57:17;27.97;;;9.77;;
75793;SDS011;64418;47.536;19.074;2023-12-20T01:59:43;35.35;;;10.65;;
75793;SDS011;64418;47.536;19.074;2023-12-20T02:02:09;27.92;;;10.07;;
75793;SDS011;64418;47.536;19.074;2023-12-20T02:04:37;35.20;;;10.35;;
75793;SDS011;64418;47.536;19.074;2023-12-20T02:07:03;25.52;;;8.98;;
75793;SDS011;64418;47.536;19.074;2023-12-20T02:09:30;37.50;;;11.40;;
75793;SDS011;64418;47.536;19.074;2023-12-20T02:11:58;33.17;;;10.95;;
75793;SDS011;64418;47.536;19.074;2023-12-20T02:14:25;39.38;;;11.75;;
75793;SDS011;64418;47.536;19.074;2023-12-20T02:16:52;38.60;;;11.15;;
75793;SDS011;64418;47.536;19.074;2023-12-20T02:19:18;33.50;;;11.97;;
75793;SDS011;64418;47.536;19.074;2023-12-20T02:21:47;26.98;;;9.13;;
75793;SDS011;64418;47.536;19.074;2023-12-20T02:24:13;34.25;;;11.07;;
75793;SDS011;64418;47.536;19.074;2023-12-20T02:26:39;45.75;;;11.20;;
75793;SDS011;64418;47.536;19.074;2023-12-20T02:29:06;38.47;;;10.93;;
75793;SDS011;64418;47.536;19.074;2023-12-20T02:31:32;32.30;;;11.50;;
75793;SDS011;64418;47.536;19.074;2023-12-20T02:33:58;43.05;;;11.52;;
75793;SDS011;64418;47.536;19.074;2023-12-20T02:36:24;38.78;;;10.48;;
75793;SDS011;64418;47.536;19.074;2023-12-20T02:38:51;32.77;;;12.20;;
75793;SDS011;64418;47.536;19.074;2023-12-20T02:41:17;37.60;;;12.23;;
75793;SDS011;64418;47.536;19.074;2023-12-20T02:43:43;37.80;;;11.30;;
75793;SDS011;64418;47.536;19.074;2023-12-20T02:46:09;33.92;;;11.50;;
75793;SDS011;64418;47.536;19.074;2023-12-20T02:48:36;37.55;;;10.70;;
75793;SDS011;64418;47.536;19.074;2023-12-20T02:51:02;52.27;;;11.73;;
75793;SDS011;64418;47.536;19.074;2023-12-20T02:53:28;40.10;;;12.30;;
75793;SDS011;64418;47.536;19.074;2023-12-20T02:55:56;30.80;;;10.73;;
75793;SDS011;64418;47.536;19.074;2023-12-20T02:58:22;38.45;;;12.00;;
75793;SDS011;64418;47.536;19.074;2023-12-20T03:00:48;40.25;;;11.43;;
75793;SDS011;64418;47.536;19.074;2023-12-20T03:03:14;42.47;;;12.70;;
75793;SDS011;64418;47.536;19.074;2023-12-20T03:05:40;42.85;;;12.77;;
75793;SDS011;64418;47.536;19.074;2023-12-20T03:08:06;38.07;;;12.50;;
75793;SDS011;64418;47.536;19.074;2023-12-20T03:10:32;39.25;;;12.55;;
75793;SDS011;64418;47.536;19.074;2023-12-20T03:12:59;44.83;;;13.00;;
75793;SDS011;64418;47.536;19.074;2023-12-20T03:15:25;42.20;;;11.90;;
75793;SDS011;64418;47.536;19.074;2023-12-20T03:17:51;39.53;;;12.43;;
75793;SDS011;64418;47.536;19.074;2023-12-20T03:20:17;44.75;;;12.82;;
75793;SDS011;64418;47.536;19.074;2023-12-20T03:22:44;42.80;;;12.25;;
75793;SDS011;64418;47.536;19.074;2023-12-20T03:25:09;43.97;;;12.15;;
75793;SDS011;64418;47.536;19.074;2023-12-20T03:27:36;32.03;;;10.67;;
75793;SDS011;64418;47.536;19.074;2023-12-20T03:30:04;36.72;;;11.70;;
75793;SDS011;64418;47.536;19.074;2023-12-20T03:32:31;34.22;;;11.12;;
75793;SDS011;64418;47.536;19.074;2023-12-20T03:34:57;31.40;;;11.77;;
75793;SDS011;64418;47.536;19.074;2023-12-20T03:37:23;31.00;;;11.67;;
75793;SDS011;64418;47.536;19.074;2023-12-20T03:39:49;33.72;;;11.38;;
75793;SDS011;64418;47.536;19.074;2023-12-20T03:42:15;31.55;;;11.30;;
75793;SDS011;64418;47.536;19.074;2023-12-20T03:44:41;34.47;;;12.35;;
75793;SDS011;64418;47.536;19.074;2023-12-20T03:47:09;28.35;;;11.27;;
75793;SDS011;64418;47.536;19.074;2023-12-20T03:49:35;26.03;;;9.47;;
75793;SDS011;64418;47.536;19.074;2023-12-20T03:52:01;28.80;;;10.07;;
75793;SDS011;64418;47.536;19.074;2023-12-20T03:54:27;30.48;;;10.13;;
75793;SDS011;64418;47.536;19.074;2023-12-20T03:56:53;30.88;;;11.80;;
75793;SDS011;64418;47.536;19.074;2023-12-20T03:59:19;37.07;;;12.10;;
75793;SDS011;64418;47.536;19.074;2023-12-20T04:01:45;37.80;;;12.27;;
75793;SDS011;64418;47.536;19.074;2023-12-20T04:04:12;28.52;;;10.93;;
75793;SDS011;64418;47.536;19.074;2023-12-20T04:06:39;24.80;;;10.63;;
75793;SDS011;64418;47.536;19.074;2023-12-20T04:09:05;30.73;;;10.93;;
75793;SDS011;64418;47.536;19.074;2023-12-20T04:11:31;32.90;;;12.43;;
75793;SDS011;64418;47.536;19.074;2023-12-20T04:13:57;33.42;;;12.98;;
75793;SDS011;64418;47.536;19.074;2023-12-20T04:16:23;32.67;;;12.77;;
75793;SDS011;64418;47.536;19.074;2023-12-20T04:18:49;31.85;;;12.60;;
75793;SDS011;64418;47.536;19.074;2023-12-20T04:21:17;33.10;;;12.47;;
75793;SDS011;64418;47.536;19.074;2023-12-20T04:23:42;37.63;;;12.63;;
75793;SDS011;64418;47.536;19.074;2023-12-20T04:26:11;32.35;;;12.23;;
75793;SDS011;64418;47.536;19.074;2023-12-20T04:28:38;32.50;;;11.95;;
75793;SDS011;64418;47.536;19.074;2023-12-20T04:31:05;31.07;;;12.03;;
75793;SDS011;64418;47.536;19.074;2023-12-20T04:33:31;30.00;;;10.73;;
75793;SDS011;64418;47.536;19.074;2023-12-20T04:35:57;29.92;;;12.18;;
75793;SDS011;64418;47.536;19.074;2023-12-20T04:38:24;29.08;;;11.25;;
75793;SDS011;64418;47.536;19.074;2023-12-20T04:40:51;27.90;;;10.43;;
75793;SDS011;64418;47.536;19.074;2023-12-20T04:43:17;30.67;;;11.40;;
75793;SDS011;64418;47.536;19.074;2023-12-20T04:45:44;28.67;;;11.32;;
75793;SDS011;64418;47.536;19.074;2023-12-20T04:48:10;28.42;;;12.85;;
75793;SDS011;64418;47.536;19.074;2023-12-20T04:50:35;30.83;;;11.60;;
75793;SDS011;64418;47.536;19.074;2023-12-20T04:53:02;26.93;;;11.50;;
75793;SDS011;64418;47.536;19.074;2023-12-20T04:55:30;36.33;;;14.55;;
75793;SDS011;64418;47.536;19.074;2023-12-20T04:57:56;32.75;;;12.48;;
75793;SDS011;64418;47.536;19.074;2023-12-20T05:00:22;29.98;;;12.35;;
75793;SDS011;64418;47.536;19.074;2023-12-20T05:02:47;24.45;;;9.98;;
75793;SDS011;64418;47.536;19.074;2023-12-20T05:05:13;29.50;;;11.63;;
75793;SDS011;64418;47.536;19.074;2023-12-20T05:07:39;36.83;;;12.57;;
75793;SDS011;64418;47.536;19.074;2023-12-20T05:10:06;30.48;;;12.05;;
75793;SDS011;64418;47.536;19.074;2023-12-20T05:12:34;31.25;;;12.85;;
75793;SDS011;64418;47.536;19.074;2023-12-20T05:15:01;31.33;;;11.50;;
75793;SDS011;64418;47.536;19.074;2023-12-20T05:17:27;38.55;;;12.35;;
75793;SDS011;64418;47.536;19.074;2023-12-20T05:19:52;31.90;;;12.07;;
75793;SDS011;64418;47.536;19.074;2023-12-20T05:22:18;40.90;;;13.02;;
75793;SDS011;64418;47.536;19.074;2023-12-20T05:24:45;34.87;;;12.77;;
75793;SDS011;64418;47.536;19.074;2023-12-20T05:27:11;33.53;;;12.77;;
75793;SDS011;64418;47.536;19.074;2023-12-20T05:29:40;33.23;;;13.50;;
75793;SDS011;64418;47.536;19.074;2023-12-20T05:32:06;28.37;;;10.93;;
75793;SDS011;64418;47.536;19.074;2023-12-20T05:34:32;28.65;;;11.60;;
75793;SDS011;64418;47.536;19.074;2023-12-20T05:36:57;39.63;;;12.60;;
75793;SDS011;64418;47.536;19.074;2023-12-20T05:39:23;34.27;;;12.67;;
75793;SDS011;64418;47.536;19.074;2023-12-20T05:41:49;36.40;;;11.90;;
75793;SDS011;64418;47.536;19.074;2023-12-20T05:44:16;44.67;;;12.10;;
75793;SDS011;64418;47.536;19.074;2023-12-20T05:46:43;58.40;;;12.65;;
75793;SDS011;64418;47.536;19.074;2023-12-20T05:49:09;37.80;;;11.83;;
75793;SDS011;64418;47.536;19.074;2023-12-20T05:51:35;36.53;;;11.75;;
75793;SDS011;64418;47.536;19.074;2023-12-20T05:54:01;37.20;;;12.20;;
75793;SDS011;64418;47.536;19.074;2023-12-20T05:56:28;43.67;;;12.40;;
75793;SDS011;64418;47.536;19.074;2023-12-20T05:58:54;36.93;;;12.77;;
75793;SDS011;64418;47.536;19.074;2023-12-20T06:01:20;42.92;;;13.23;;
75793;SDS011;64418;47.536;19.074;2023-12-20T06:03:48;42.97;;;14.32;;
75793;SDS011;64418;47.536;19.074;2023-12-20T06:06:14;40.50;;;13.50;;
75793;SDS011;64418;47.536;19.074;2023-12-20T06:08:40;51.15;;;13.52;;
75793;SDS011;64418;47.536;19.074;2023-12-20T06:11:07;52.42;;;14.52;;
75793;SDS011;64418;47.536;19.074;2023-12-20T06:13:33;44.20;;;14.15;;
75793;SDS011;64418;47.536;19.074;2023-12-20T06:16:00;52.13;;;15.93;;
75793;SDS011;64418;47.536;19.074;2023-12-20T06:18:26;60.33;;;14.57;;
75793;SDS011;64418;47.536;19.074;2023-12-20T06:20:54;40.35;;;13.25;;
75793;SDS011;64418;47.536;19.074;2023-12-20T06:23:20;49.75;;;14.82;;
75793;SDS011;64418;47.536;19.074;2023-12-20T06:25:46;42.90;;;14.43;;
75793;SDS011;64418;47.536;19.074;2023-12-20T06:28:13;38.92;;;13.98;;
75793;SDS011;64418;47.536;19.074;2023-12-20T06:30:40;44.87;;;15.30;;
75793;SDS011;64418;47.536;19.074;2023-12-20T06:33:06;32.50;;;13.60;;
75793;SDS011;64418;47.536;19.074;2023-12-20T06:35:32;36.03;;;13.73;;
75793;SDS011;64418;47.536;19.074;2023-12-20T06:38:00;36.92;;;15.10;;
75793;SDS011;64418;47.536;19.074;2023-12-20T06:40:26;43.97;;;14.80;;
75793;SDS011;64418;47.536;19.074;2023-12-20T06:42:52;41.47;;;14.18;;
75793;SDS011;64418;47.536;19.074;2023-12-20T06:45:18;44.85;;;13.93;;
75793;SDS011;64418;47.536;19.074;2023-12-20T06:47:44;42.37;;;14.57;;
75793;SDS011;64418;47.536;19.074;2023-12-20T06:50:10;44.05;;;14.85;;
75793;SDS011;64418;47.536;19.074;2023-12-20T06:52:36;40.85;;;14.10;;
75793;SDS011;64418;47.536;19.074;2023-12-20T06:55:05;41.45;;;12.37;;
75793;SDS011;64418;47.536;19.074;2023-12-20T06:57:31;47.80;;;14.60;;
75793;SDS011;64418;47.536;19.074;2023-12-20T06:59:57;35.43;;;11.43;;
75793;SDS011;64418;47.536;19.074;2023-12-20T07:02:23;36.30;;;13.57;;
75793;SDS011;64418;47.536;19.074;2023-12-20T07:04:49;42.22;;;12.68;;
75793;SDS011;64418;47.536;19.074;2023-12-20T07:07:16;30.80;;;11.27;;
75793;SDS011;64418;47.536;19.074;2023-12-20T07:09:52;42.62;;;14.35;;
75793;SDS011;64418;47.536;19.074;2023-12-20T07:12:19;37.60;;;13.33;;
75793;SDS011;64418;47.536;19.074;2023-12-20T07:14:46;43.85;;;13.82;;
75793;SDS011;64418;47.536;19.074;2023-12-20T07:17:12;39.67;;;12.52;;
75793;SDS011;64418;47.536;19.074;2023-12-20T07:19:38;41.97;;;14.87;;
75793;SDS011;64418;47.536;19.074;2023-12-20T07:22:05;46.03;;;14.60;;
75793;SDS011;64418;47.536;19.074;2023-12-20T07:24:32;53.83;;;14.20;;
75793;SDS011;64418;47.536;19.074;2023-12-20T07:26:59;49.75;;;13.62;;
75793;SDS011;64418;47.536;19.074;2023-12-20T07:29:27;49.20;;;15.35;;
75793;SDS011;64418;47.536;19.074;2023-12-20T07:31:55;60.97;;;14.52;;
75793;SDS011;64418;47.536;19.074;2023-12-20T07:34:21;38.87;;;12.50;;
75793;SDS011;64418;47.536;19.074;2023-12-20T07:36:48;49.95;;;12.88;;
75793;SDS011;64418;47.536;19.074;2023-12-20T07:39:15;33.45;;;12.95;;
75793;SDS011;64418;47.536;19.074;2023-12-20T07:41:41;35.13;;;13.15;;
75793;SDS011;64418;47.536;19.074;2023-12-20T07:44:07;40.27;;;13.37;;
75793;SDS011;64418;47.536;19.074;2023-12-20T07:46:38;58.72;;;13.38;;
75793;SDS011;64418;47.536;19.074;2023-12-20T07:49:06;31.92;;;12.13;;
75793;SDS011;64418;47.536;19.074;2023-12-20T07:51:33;37.35;;;12.63;;
75793;SDS011;64418;47.536;19.074;2023-12-20T07:54:00;34.20;;;12.50;;
75793;SDS011;64418;47.536;19.074;2023-12-20T07:56:29;32.63;;;13.40;;
75793;SDS011;64418;47.536;19.074;2023-12-20T07:58:58;35.35;;;12.77;;
75793;SDS011;64418;47.536;19.074;2023-12-20T08:01:24;31.92;;;12.75;;
75793;SDS011;64418;47.536;19.074;2023-12-20T08:03:53;33.03;;;13.50;;
75793;SDS011;64418;47.536;19.074;2023-12-20T08:06:19;44.93;;;21.07;;
75793;SDS011;64418;47.536;19.074;2023-12-20T08:08:46;31.67;;;14.50;;
75793;SDS011;64418;47.536;19.074;2023-12-20T08:11:13;26.58;;;11.73;;
75793;SDS011;64418;47.536;19.074;2023-12-20T08:13:40;33.72;;;13.07;;
75793;SDS011;64418;47.536;19.074;2023-12-20T08:16:07;31.83;;;14.20;;
75793;SDS011;64418;47.536;19.074;2023-12-20T08:18:45;27.30;;;11.57;;
75793;SDS011;64418;47.536;19.074;2023-12-20T08:21:30;27.42;;;12.50;;
75793;SDS011;64418;47.536;19.074;2023-12-20T08:24:16;40.22;;;12.57;;
75793;SDS011;64418;47.536;19.074;2023-12-20T08:27:02;36.95;;;13.05;;
75793;SDS011;64418;47.536;19.074;2023-12-20T08:29:29;36.72;;;13.02;;
75793;SDS011;64418;47.536;19.074;2023-12-20T08:31:55;23.93;;;10.93;;
75793;SDS011;64418;47.536;19.074;2023-12-20T08:34:22;33.42;;;14.18;;
75793;SDS011;64418;47.536;19.074;2023-12-20T08:36:49;36.05;;;14.82;;
75793;SDS011;64418;47.536;19.074;2023-12-20T08:39:16;31.55;;;13.15;;
75793;SDS011;64418;47.536;19.074;2023-12-20T08:41:42;34.27;;;14.17;;
75793;SDS011;64418;47.536;19.074;2023-12-20T08:44:09;32.92;;;13.88;;
75793;SDS011;64418;47.536;19.074;2023-12-20T08:46:37;36.08;;;14.25;;
75793;SDS011;64418;47.536;19.074;2023-12-20T08:49:03;30.67;;;12.75;;
75793;SDS011;64418;47.536;19.074;2023-12-20T08:51:29;32.37;;;12.23;;
75793;SDS011;64418;47.536;19.074;2023-12-20T08:53:56;35.30;;;14.23;;
75793;SDS011;64418;47.536;19.074;2023-12-20T08:56:22;37.35;;;16.62;;
75793;SDS011;64418;47.536;19.074;2023-12-20T08:58:48;29.80;;;13.15;;
75793;SDS011;64418;47.536;19.074;2023-12-20T09:01:15;36.60;;;14.70;;
75793;SDS011;64418;47.536;19.074;2023-12-20T09:03:41;33.42;;;14.18;;
75793;SDS011;64418;47.536;19.074;2023-12-20T09:06:08;42.60;;;16.00;;
75793;SDS011;64418;47.536;19.074;2023-12-20T09:08:35;34.13;;;14.55;;
75793;SDS011;64418;47.536;19.074;2023-12-20T09:11:05;36.75;;;15.40;;
75793;SDS011;64418;47.536;19.074;2023-12-20T09:13:33;36.37;;;14.80;;
75793;SDS011;64418;47.536;19.074;2023-12-20T09:15:59;42.88;;;17.73;;
75793;SDS011;64418;47.536;19.074;2023-12-20T09:18:27;40.38;;;15.95;;
75793;SDS011;64418;47.536;19.074;2023-12-20T09:21:05;35.85;;;15.40;;
75793;SDS011;64418;47.536;19.074;2023-12-20T09:36:49;38.22;;;16.52;;
75793;SDS011;64418;47.536;19.074;2023-12-20T09:42:55;37.97;;;14.23;;
75793;SDS011;64418;47.536;19.074;2023-12-20T09:45:24;38.95;;;15.57;;
75793;SDS011;64418;47.536;19.074;2023-12-20T09:47:52;38.35;;;16.67;;
75793;SDS011;64418;47.536;19.074;2023-12-20T09:50:19;39.30;;;15.45;;
75793;SDS011;64418;47.536;19.074;2023-12-20T09:52:48;40.38;;;16.30;;
75793;SDS011;64418;47.536;19.074;2023-12-20T09:55:20;39.10;;;14.87;;
75793;SDS011;64418;47.536;19.074;2023-12-20T09:57:47;40.35;;;16.30;;
75793;SDS011;64418;47.536;19.074;2023-12-20T10:00:13;43.28;;;17.35;;
75793;SDS011;64418;47.536;19.074;2023-12-20T10:03:00;43.47;;;17.95;;
75793;SDS011;64418;47.536;19.074;2023-12-20T10:05:27;36.70;;;15.43;;
75793;SDS011;64418;47.536;19.074;2023-12-20T10:07:55;34.63;;;15.33;;
75793;SDS011;64418;47.536;19.074;2023-12-20T10:10:22;36.05;;;15.65;;
75793;SDS011;64418;47.536;19.074;2023-12-20T10:13:00;41.30;;;17.62;;
75793;SDS011;64418;47.536;19.074;2023-12-20T10:15:27;39.05;;;16.17;;
75793;SDS011;64418;47.536;19.074;2023-12-20T10:18:13;37.15;;;16.05;;
75793;SDS011;64418;47.536;19.074;2023-12-20T10:21:01;32.30;;;15.30;;
75793;SDS011;64418;47.536;19.074;2023-12-20T10:23:29;35.38;;;16.52;;
75793;SDS011;64418;47.536;19.074;2023-12-20T10:25:56;39.38;;;17.33;;
75793;SDS011;64418;47.536;19.074;2023-12-20T10:28:42;35.70;;;16.62;;
75793;SDS011;64418;47.536;19.074;2023-12-20T10:31:08;38.60;;;18.65;;
75793;SDS011;64418;47.536;19.074;2023-12-20T10:33:55;36.33;;;17.83;;
75793;SDS011;64418;47.536;19.074;2023-12-20T10:36:43;39.10;;;16.77;;
75793;SDS011;64418;47.536;19.074;2023-12-20T10:39:32;35.33;;;18.37;;
75793;SDS011;64418;47.536;19.074;2023-12-20T10:41:58;37.70;;;17.80;;
75793;SDS011;64418;47.536;19.074;2023-12-20T10:44:43;39.67;;;18.48;;
75793;SDS011;64418;47.536;19.074;2023-12-20T10:47:09;36.50;;;17.77;;
75793;SDS011;64418;47.536;19.074;2023-12-20T10:49:38;38.15;;;18.17;;
75793;SDS011;64418;47.536;19.074;2023-12-20T10:52:05;41.40;;;20.73;;
75793;SDS011;64418;47.536;19.074;2023-12-20T10:54:55;42.50;;;20.37;;
75793;SDS011;64418;47.536;19.074;2023-12-20T10:57:41;41.53;;;20.00;;
75793;SDS011;64418;47.536;19.074;2023-12-20T11:00:30;39.00;;;19.30;;
75793;SDS011;64418;47.536;19.074;2023-12-20T11:03:00;40.63;;;20.25;;
75793;SDS011;64418;47.536;19.074;2023-12-20T11:05:30;38.25;;;18.52;;
75793;SDS011;64418;47.536;19.074;2023-12-20T11:08:22;40.58;;;20.60;;
75793;SDS011;64418;47.536;19.074;2023-12-20T11:10:56;37.75;;;18.75;;
75793;SDS011;64418;47.536;19.074;2023-12-20T11:13:30;35.20;;;19.60;;
75793;SDS011;64418;47.536;19.074;2023-12-20T11:15:59;33.38;;;18.30;;
75793;SDS011;64418;47.536;19.074;2023-12-20T11:18:28;33.20;;;18.23;;
75793;SDS011;64418;47.536;19.074;2023-12-20T11:20:54;37.95;;;19.10;;
75793;SDS011;64418;47.536;19.074;2023-12-20T11:23:40;35.75;;;18.67;;
75793;SDS011;64418;47.536;19.074;2023-12-20T11:26:10;37.73;;;19.60;;
75793;SDS011;64418;47.536;19.074;2023-12-20T11:28:35;41.03;;;20.48;;
75793;SDS011;64418;47.536;19.074;2023-12-20T11:31:01;38.90;;;20.25;;
75793;SDS011;64418;47.536;19.074;2023-12-20T11:33:29;37.85;;;19.42;;
75793;SDS011;64418;47.536;19.074;2023-12-20T11:35:56;42.47;;;20.60;;
75793;SDS011;64418;47.536;19.074;2023-12-20T11:38:24;44.55;;;22.67;;
75793;SDS011;64418;47.536;19.074;2023-12-20T11:40:51;42.45;;;20.98;;
75793;SDS011;64418;47.536;19.074;2023-12-20T11:43:41;45.28;;;22.20;;
75793;SDS011;64418;47.536;19.074;2023-12-20T11:46:07;45.10;;;21.92;;
75793;SDS011;64418;47.536;19.074;2023-12-20T11:48:54;44.47;;;21.63;;
75793;SDS011;64418;47.536;19.074;2023-12-20T11:51:40;42.95;;;20.88;;
75793;SDS011;64418;47.536;19.074;2023-12-20T11:54:06;42.50;;;21.58;;
75793;SDS011;64418;47.536;19.074;2023-12-20T11:56:52;42.80;;;20.80;;
75793;SDS011;64418;47.536;19.074;2023-12-20T11:59:21;43.35;;;21.08;;
75793;SDS011;64418;47.536;19.074;2023-12-20T12:01:48;47.70;;;21.43;;
75793;SDS011;64418;47.536;19.074;2023-12-20T12:04:14;39.88;;;20.52;;
75793;SDS011;64418;47.536;19.074;2023-12-20T12:07:00;37.83;;;18.80;;
75793;SDS011;64418;47.536;19.074;2023-12-20T12:09:27;27.08;;;14.40;;
75793;SDS011;64418;47.536;19.074;2023-12-20T12:12:13;25.48;;;13.23;;
75793;SDS011;64418;47.536;19.074;2023-12-20T12:15:02;20.10;;;11.50;;
75793;SDS011;64418;47.536;19.074;2023-12-20T12:17:28;20.80;;;11.15;;
75793;SDS011;64418;47.536;19.074;2023-12-20T12:20:01;20.17;;;11.80;;
75793;SDS011;64418;47.536;19.074;2023-12-20T12:22:29;19.50;;;10.52;;
75793;SDS011;64418;47.536;19.074;2023-12-20T12:24:58;21.95;;;11.93;;
75793;SDS011;64418;47.536;19.074;2023-12-20T12:27:25;22.43;;;10.17;;
75793;SDS011;64418;47.536;19.074;2023-12-20T12:30:15;19.08;;;10.27;;
75793;SDS011;64418;47.536;19.074;2023-12-20T12:33:02;15.65;;;9.38;;
75793;SDS011;64418;47.536;19.074;2023-12-20T12:35:29;14.30;;;7.90;;
75793;SDS011;64418;47.536;19.074;2023-12-20T12:37:55;15.48;;;8.73;;
75793;SDS011;64418;47.536;19.074;2023-12-20T12:40:25;13.80;;;7.23;;
75793;SDS011;64418;47.536;19.074;2023-12-20T12:42:51;15.75;;;8.55;;
75793;SDS011;64418;47.536;19.074;2023-12-20T12:45:19;12.13;;;6.72;;
75793;SDS011;64418;47.536;19.074;2023-12-20T12:47:45;15.10;;;8.23;;
75793;SDS011;64418;47.536;19.074;2023-12-20T12:50:11;14.95;;;7.82;;
75793;SDS011;64418;47.536;19.074;2023-12-20T12:52:37;13.23;;;6.93;;
75793;SDS011;64418;47.536;19.074;2023-12-20T12:55:03;14.60;;;8.20;;
75793;SDS011;64418;47.536;19.074;2023-12-20T12:57:50;13.77;;;7.18;;
75793;SDS011;64418;47.536;19.074;2023-12-20T13:00:20;15.07;;;7.50;;
75793;SDS011;64418;47.536;19.074;2023-12-20T13:02:47;17.20;;;6.97;;
75793;SDS011;64418;47.536;19.074;2023-12-20T13:05:14;16.52;;;7.45;;
75793;SDS011;64418;47.536;19.074;2023-12-20T13:07:41;13.43;;;6.28;;
75793;SDS011;64418;47.536;19.074;2023-12-20T13:10:09;14.75;;;7.80;;
75793;SDS011;64418;47.536;19.074;2023-12-20T13:12:35;12.05;;;6.87;;
75793;SDS011;64418;47.536;19.074;2023-12-20T13:15:01;13.60;;;7.20;;
75793;SDS011;64418;47.536;19.074;2023-12-20T13:17:36;13.95;;;6.78;;
75793;SDS011;64418;47.536;19.074;2023-12-20T13:20:06;19.02;;;8.05;;
75793;SDS011;64418;47.536;19.074;2023-12-20T13:31:28;14.63;;;7.32;;
75793;SDS011;64418;47.536;19.074;2023-12-20T13:34:08;14.63;;;7.93;;
75793;SDS011;64418;47.536;19.074;2023-12-20T13:36:40;11.20;;;5.47;;
75793;SDS011;64418;47.536;19.074;2023-12-20T13:39:11;17.08;;;7.75;;
75793;SDS011;64418;47.536;19.074;2023-12-20T13:41:38;13.57;;;7.73;;
75793;SDS011;64418;47.536;19.074;2023-12-20T13:44:04;15.35;;;6.62;;
75793;SDS011;64418;47.536;19.074;2023-12-20T13:50:00;13.02;;;7.03;;
75793;SDS011;64418;47.536;19.074;2023-12-20T13:52:28;13.10;;;7.78;;
75793;SDS011;64418;47.536;19.074;2023-12-20T13:54:59;16.77;;;7.87;;
75793;SDS011;64418;47.536;19.074;2023-12-20T13:57:27;16.23;;;8.30;;
75793;SDS011;64418;47.536;19.074;2023-12-20T13:59:54;11.85;;;6.28;;
75793;SDS011;64418;47.536;19.074;2023-12-20T14:02:20;13.45;;;7.22;;
75793;SDS011;64418;47.536;19.074;2023-12-20T14:04:47;13.55;;;6.25;;
75793;SDS011;64418;47.536;19.074;2023-12-20T14:07:16;12.97;;;6.93;;
75793;SDS011;64418;47.536;19.074;2023-12-20T14:09:42;12.82;;;7.07;;
75793;SDS011;64418;47.536;19.074;2023-12-20T14:12:08;11.95;;;7.78;;
75793;SDS011;64418;47.536;19.074;2023-12-20T14:14:34;12.77;;;7.07;;
75793;SDS011;64418;47.536;19.074;2023-12-20T14:17:01;14.85;;;8.40;;
75793;SDS011;64418;47.536;19.074;2023-12-20T14:19:27;15.47;;;8.17;;
75793;SDS011;64418;47.536;19.074;2023-12-20T14:21:53;14.77;;;7.43;;
75793;SDS011;64418;47.536;19.074;2023-12-20T14:24:20;12.75;;;7.12;;
75793;SDS011;64418;47.536;19.074;2023-12-20T14:26:47;12.60;;;7.35;;
75793;SDS011;64418;47.536;19.074;2023-12-20T14:29:13;8.13;;;5.03;;
75793;SDS011;64418;47.536;19.074;2023-12-20T14:31:39;13.65;;;6.57;;
75793;SDS011;64418;47.536;19.074;2023-12-20T14:34:06;9.85;;;5.07;;
75793;SDS011;64418;47.536;19.074;2023-12-20T14:36:32;13.05;;;6.53;;
75793;SDS011;64418;47.536;19.074;2023-12-20T14:39:00;11.05;;;6.00;;
75793;SDS011;64418;47.536;19.074;2023-12-20T14:41:27;11.07;;;6.40;;
75793;SDS011;64418;47.536;19.074;2023-12-20T14:43:54;10.38;;;6.07;;
75793;SDS011;64418;47.536;19.074;2023-12-20T14:46:20;7.55;;;5.03;;